createdAt,value
2022-11-17T00:00:27.696Z,98960.09
2022-11-17T00:02:54.236Z,98948.22
2022-11-17T00:05:21.163Z,98937.44
2022-11-17T00:07:48.997Z,98936.22
2022-11-17T00:10:17.205Z,98931.56
2022-11-17T00:13:02.630Z,98936.94
2022-11-17T00:15:29.191Z,98937.28
2022-11-17T00:18:15.680Z,98926.94
2022-11-17T00:21:00.704Z,98924.28
2022-11-17T00:23:46.574Z,98906.84
2022-11-17T00:26:21.296Z,98901.44
2022-11-17T00:28:51.586Z,98900.66
2022-11-17T00:31:36.771Z,98879.19
2022-11-17T00:34:06.439Z,98879.50
2022-11-17T00:36:34.807Z,98866.22
2022-11-17T00:39:01.584Z,98856.47
2022-11-17T00:41:28.789Z,98849.53
2022-11-17T00:43:55.387Z,98835.22
2022-11-17T00:46:22.011Z,98825.03
2022-11-17T00:48:48.530Z,98812.38
2022-11-17T00:51:15.049Z,98823.16
2022-11-17T00:53:41.506Z,98807.75
2022-11-17T00:56:07.906Z,98794.47
2022-11-17T00:58:35.484Z,98786.75
2022-11-17T01:01:02.755Z,98793.56
2022-11-17T01:03:29.303Z,98793.22
2022-11-17T01:05:55.757Z,98782.16
2022-11-17T01:08:22.184Z,98776.63
2022-11-17T01:10:48.685Z,98774.75
2022-11-17T01:13:17.973Z,98775.38
2022-11-17T01:15:44.375Z,98764.91
2022-11-17T01:18:11.126Z,98762.13
2022-11-17T01:20:37.696Z,98768.75
2022-11-17T01:23:04.111Z,98767.22
2022-11-17T01:25:31.184Z,98763.03
2022-11-17T01:27:57.663Z,98760.59
2022-11-17T01:30:24.129Z,98754.56
2022-11-17T01:32:50.552Z,98751.47
2022-11-17T01:35:17.094Z,98755.94
2022-11-17T01:37:43.508Z,98735.75
2022-11-17T01:40:13.420Z,98734.34
2022-11-17T01:42:39.992Z,98724.63
2022-11-17T01:45:22.020Z,98727.53
2022-11-17T01:48:01.929Z,98713.34
2022-11-17T01:50:37.319Z,98706.56
2022-11-17T01:53:08.644Z,98699.16
2022-11-17T01:55:42.523Z,98684.50
2022-11-17T01:58:13.860Z,98686.66
2022-11-17T02:00:40.491Z,98681.06
2022-11-17T02:03:07.441Z,98690.03
2022-11-17T02:05:54.173Z,98675.38
2022-11-17T02:08:23.580Z,98670.75
2022-11-17T02:10:52.118Z,98671.66
2022-11-17T02:13:20.511Z,98658.41
2022-11-17T02:15:47.133Z,98656.56
2022-11-17T02:18:15.280Z,98641.00
2022-11-17T02:20:51.874Z,98648.69
2022-11-17T02:23:24.405Z,98631.91
2022-11-17T02:26:15.326Z,98642.06
2022-11-17T02:29:00.259Z,98601.41
2022-11-17T02:32:01.868Z,98613.72
2022-11-17T02:34:35.530Z,98617.59
2022-11-17T02:37:25.901Z,98602.94
2022-11-17T02:39:55.920Z,98601.56
2022-11-17T02:42:47.718Z,98603.28
2022-11-17T02:45:21.361Z,98599.22
2022-11-17T02:47:53.910Z,98598.00
2022-11-17T02:50:28.075Z,98594.00
2022-11-17T02:52:55.668Z,98594.31
2022-11-17T02:55:22.084Z,98582.13
2022-11-17T02:57:49.663Z,98576.91
2022-11-17T03:00:18.204Z,98577.69
2022-11-17T03:03:03.147Z,98575.06
2022-11-17T03:05:47.902Z,98566.59
2022-11-17T03:08:36.382Z,98560.13
2022-11-17T03:11:05.282Z,98549.78
2022-11-17T03:13:43.807Z,98553.34
2022-11-17T03:16:37.226Z,98564.75
2022-11-17T03:19:06.403Z,98564.09
2022-11-17T03:21:58.227Z,98546.28
2022-11-17T03:24:31.342Z,98548.41
2022-11-17T03:27:05.854Z,98535.47
2022-11-17T03:29:35.755Z,98533.03
2022-11-17T03:32:06.321Z,98533.94
2022-11-17T03:34:39.193Z,98539.34
2022-11-17T03:37:08.790Z,98522.53
2022-11-17T03:39:40.000Z,98522.25
2022-11-17T03:42:38.900Z,98517.63
2022-11-17T03:45:18.081Z,98511.78
2022-11-17T03:47:45.514Z,98512.69
2022-11-17T03:50:17.268Z,98519.31
2022-11-17T03:52:44.850Z,98516.53
2022-11-17T03:55:12.368Z,98517.63
2022-11-17T03:57:49.635Z,98505.41
2022-11-17T04:00:18.687Z,98500.97
2022-11-17T04:02:47.852Z,98496.97
2022-11-17T04:05:17.386Z,98496.81
2022-11-17T04:07:45.852Z,98488.66
2022-11-17T04:10:14.535Z,98489.09
2022-11-17T04:13:00.646Z,98488.97
2022-11-17T04:15:46.486Z,98492.47
2022-11-17T04:18:13.701Z,98464.50
2022-11-17T04:20:40.241Z,98474.66
2022-11-17T04:23:09.211Z,98460.31
2022-11-17T04:26:09.301Z,98447.88
2022-11-17T04:28:39.620Z,98455.41
2022-11-17T04:31:16.051Z,98433.09
2022-11-17T04:33:48.109Z,98454.16
2022-11-17T04:36:17.483Z,98439.84
2022-11-17T04:38:46.546Z,98429.69
2022-11-17T04:41:33.499Z,98433.72
2022-11-17T04:44:01.276Z,98442.63
2022-11-17T04:46:29.456Z,98434.31
2022-11-17T04:48:57.014Z,98434.16
2022-11-17T04:51:25.095Z,98439.25
2022-11-17T04:53:51.884Z,98448.66
2022-11-17T04:56:19.394Z,98446.34
2022-11-17T04:58:46.059Z,98444.03
2022-11-17T05:01:12.626Z,98446.19
2022-11-17T05:03:51.024Z,98435.25
2022-11-17T05:06:29.132Z,98441.09
2022-11-17T05:08:56.485Z,98442.94
2022-11-17T05:11:44.094Z,98429.84
2022-11-17T05:14:11.967Z,98426.00
2022-11-17T05:16:57.714Z,98423.41
2022-11-17T05:19:25.241Z,98408.31
2022-11-17T05:21:51.964Z,98421.06
2022-11-17T05:24:18.705Z,98427.72
2022-11-17T05:26:46.682Z,98421.06
2022-11-17T05:29:15.481Z,98421.72
2022-11-17T05:31:42.429Z,98416.47
2022-11-17T05:34:12.316Z,98415.25
2022-11-17T05:36:39.455Z,98414.63
2022-11-17T05:39:06.261Z,98415.41
2022-11-17T05:41:32.886Z,98420.94
2022-11-17T05:43:59.340Z,98417.06
2022-11-17T05:46:26.156Z,98415.41
2022-11-17T05:48:53.301Z,98419.84
2022-11-17T05:51:22.075Z,98418.00
2022-11-17T05:53:49.205Z,98427.09
2022-11-17T05:56:42.217Z,98432.63
2022-11-17T05:59:17.400Z,98436.16
2022-11-17T06:01:52.516Z,98430.47
2022-11-17T06:04:20.490Z,98423.41
2022-11-17T06:06:48.343Z,98419.41
2022-11-17T06:09:15.574Z,98430.19
2022-11-17T06:11:42.061Z,98413.41
2022-11-17T06:14:08.540Z,98417.25
2022-11-17T06:16:41.509Z,98418.16
2022-11-17T06:19:13.799Z,98417.53
2022-11-17T06:22:09.832Z,98409.69
2022-11-17T06:24:27.252Z,98406.63
2022-11-17T06:26:53.756Z,98395.69
2022-11-17T06:29:20.309Z,98398.31
2022-11-17T06:31:47.194Z,98397.06
2022-11-17T06:34:13.719Z,98391.38
2022-11-17T06:36:40.167Z,98395.66
2022-11-17T06:39:06.659Z,98400.63
2022-11-17T06:41:33.102Z,98404.31
2022-11-17T06:43:59.646Z,98415.06
2022-11-17T06:46:37.725Z,98409.84
2022-11-17T06:49:06.473Z,98414.94
2022-11-17T06:51:38.938Z,98397.69
2022-11-17T06:54:09.736Z,98414.16
2022-11-17T06:56:36.350Z,98406.63
2022-11-17T06:59:02.866Z,98417.69
2022-11-17T07:01:29.375Z,98414.47
2022-11-17T07:03:55.833Z,98414.75
2022-11-17T07:06:22.372Z,98409.22
2022-11-17T07:08:48.952Z,98414.47
2022-11-17T07:11:16.612Z,98416.31
2022-11-17T07:13:43.457Z,98408.47
2022-11-17T07:16:21.815Z,98414.78
2022-11-17T07:18:50.308Z,98414.00
2022-11-17T07:21:17.911Z,98414.47
2022-11-17T07:23:45.699Z,98408.78
2022-11-17T07:26:12.696Z,98414.63
2022-11-17T07:28:39.345Z,98420.16
2022-11-17T07:31:08.048Z,98421.88
2022-11-17T07:33:35.269Z,98422.16
2022-11-17T07:36:10.054Z,98436.47
2022-11-17T07:38:38.560Z,98424.31
2022-11-17T07:41:06.821Z,98422.31
2022-11-17T07:43:34.467Z,98433.41
2022-11-17T07:46:10.408Z,98436.81
2022-11-17T07:48:37.295Z,98438.78
2022-11-17T07:51:05.406Z,98444.63
2022-11-17T07:53:33.335Z,98443.72
2022-11-17T07:56:08.117Z,98455.72
2022-11-17T07:58:35.133Z,98454.47
2022-11-17T08:01:10.114Z,98460.50
2022-11-17T08:03:36.826Z,98458.81
2022-11-17T08:06:07.306Z,98483.47
2022-11-17T08:08:34.749Z,98486.84
2022-11-17T08:11:06.777Z,98504.56
2022-11-17T08:13:33.956Z,98509.94
2022-11-17T08:16:00.799Z,98508.91
2022-11-17T08:18:28.779Z,98504.56
2022-11-17T08:21:06.378Z,98510.72
2022-11-17T08:23:34.216Z,98514.41
2022-11-17T08:26:02.361Z,98524.75
2022-11-17T08:28:28.935Z,98519.34
2022-11-17T08:30:56.005Z,98515.81
2022-11-17T08:33:22.734Z,98527.97
2022-11-17T08:35:49.274Z,98527.50
2022-11-17T08:38:15.795Z,98530.59
2022-11-17T08:40:42.540Z,98526.88
2022-11-17T08:43:09.119Z,98528.56
2022-11-17T08:45:35.647Z,98535.94
2022-11-17T08:48:02.161Z,98535.78
2022-11-17T08:50:28.739Z,98534.56
2022-11-17T08:52:55.228Z,98528.06
2022-11-17T08:55:21.823Z,98534.56
2022-11-17T08:57:48.433Z,98539.66
2022-11-17T09:00:16.317Z,98541.31
2022-11-17T09:02:42.857Z,98547.78
2022-11-17T09:05:09.494Z,98556.41
2022-11-17T09:07:35.979Z,98552.09
2022-11-17T09:10:04.482Z,98561.81
2022-11-17T09:12:31.358Z,98557.81
2022-11-17T09:14:57.861Z,98558.72
2022-11-17T09:17:24.373Z,98558.84
2022-11-17T09:19:50.821Z,98562.41
2022-11-17T09:22:17.335Z,98565.63
2022-11-17T09:24:43.793Z,98576.13
2022-11-17T09:27:10.239Z,98577.03
2022-11-17T09:29:36.656Z,98580.44
2022-11-17T09:32:03.142Z,98582.59
2022-11-17T09:34:29.712Z,98589.34
2022-11-17T09:36:56.506Z,98584.44
2022-11-17T09:39:23.053Z,98584.16
2022-11-17T09:41:51.853Z,98587.56
2022-11-17T09:44:24.498Z,98588.63
2022-11-17T09:47:08.062Z,98589.41
2022-11-17T09:49:58.300Z,98594.34
2022-11-17T09:52:50.856Z,98596.81
2022-11-17T09:55:34.223Z,98588.53
2022-11-17T09:58:11.192Z,98587.91
2022-11-17T10:00:40.851Z,98590.06
2022-11-17T10:03:18.231Z,98586.38
2022-11-17T10:05:45.083Z,98595.91
2022-11-17T10:08:18.425Z,98602.72
2022-11-17T10:10:52.136Z,98607.03
2022-11-17T10:13:31.977Z,98608.25
2022-11-17T10:16:05.680Z,98604.91
2022-11-17T10:18:38.066Z,98617.22
2022-11-17T10:21:06.724Z,98620.16
2022-11-17T10:23:47.129Z,98616.00
2022-11-17T10:26:15.604Z,98623.38
2022-11-17T10:28:42.170Z,98618.13
2022-11-17T10:31:17.082Z,98613.84
2022-11-17T10:33:46.064Z,98619.06
2022-11-17T10:36:32.694Z,98626.63
2022-11-17T10:39:00.667Z,98620.59
2022-11-17T10:41:30.516Z,98616.13
2022-11-17T10:43:59.827Z,98620.31
2022-11-17T10:46:29.923Z,98631.13
2022-11-17T10:49:05.017Z,98627.72
2022-11-17T10:51:33.440Z,98621.69
2022-11-17T10:54:19.758Z,98628.66
2022-11-17T10:56:55.890Z,98635.72
2022-11-17T10:59:33.357Z,98641.75
2022-11-17T11:02:25.524Z,98634.81
2022-11-17T11:05:09.298Z,98647.75
2022-11-17T11:07:36.520Z,98653.06
2022-11-17T11:10:14.332Z,98648.78
2022-11-17T11:13:08.861Z,98643.44
2022-11-17T11:15:36.521Z,98644.59
2022-11-17T11:18:13.161Z,98646.19
2022-11-17T11:20:47.164Z,98648.97
2022-11-17T11:23:39.493Z,98641.81
2022-11-17T11:26:33.006Z,98648.31
2022-11-17T11:29:22.168Z,98646.66
2022-11-17T11:32:05.422Z,98645.25
2022-11-17T11:34:50.456Z,98644.94
2022-11-17T11:37:17.086Z,98637.22
2022-11-17T11:40:26.879Z,98645.69
2022-11-17T11:43:04.986Z,98658.97
2022-11-17T11:45:53.439Z,98659.75
2022-11-17T11:48:27.035Z,98661.13
2022-11-17T11:51:11.049Z,98659.44
2022-11-17T11:53:49.269Z,98666.19
2022-11-17T11:56:21.129Z,98676.88
2022-11-17T11:59:07.798Z,98666.22
2022-11-17T12:01:44.884Z,98669.94
2022-11-17T12:04:33.694Z,98690.91
2022-11-17T12:07:14.109Z,98679.22
2022-11-17T12:10:04.110Z,98688.16
2022-11-17T12:12:33.918Z,98682.91
2022-11-17T12:15:18.763Z,98693.41
2022-11-17T12:18:06.074Z,98704.06
2022-11-17T12:20:38.659Z,98694.50
2022-11-17T12:23:24.016Z,98694.34
2022-11-17T12:26:00.592Z,98700.66
2022-11-17T12:28:39.027Z,98696.34
2022-11-17T12:31:32.746Z,98699.28
2022-11-17T12:33:59.158Z,98690.66
2022-11-17T12:36:32.798Z,98692.81
2022-11-17T12:39:01.209Z,98690.22
2022-11-17T12:41:49.796Z,98710.72
2022-11-17T12:44:38.368Z,98701.78
2022-11-17T12:47:14.167Z,98704.38
2022-11-17T12:50:05.580Z,98703.91
2022-11-17T12:52:37.735Z,98698.38
2022-11-17T12:55:37.040Z,98709.66
2022-11-17T12:58:11.176Z,98709.03
2022-11-17T13:00:48.971Z,98716.25
2022-11-17T13:03:17.511Z,98715.78
2022-11-17T13:05:43.991Z,98729.69
2022-11-17T13:08:23.025Z,98731.25
2022-11-17T13:10:50.871Z,98726.44
2022-11-17T13:13:22.231Z,98744.81
2022-11-17T13:15:53.412Z,98735.41
2022-11-17T13:18:22.541Z,98740.81
2022-11-17T13:20:49.506Z,98742.97
2022-11-17T13:23:25.801Z,98740.66
2022-11-17T13:26:09.345Z,98748.38
2022-11-17T13:28:36.111Z,98740.34
2022-11-17T13:31:02.914Z,98749.13
2022-11-17T13:33:30.493Z,98746.81
2022-11-17T13:36:07.375Z,98757.47
2022-11-17T13:38:33.852Z,98751.59
2022-11-17T13:41:01.883Z,98756.38
2022-11-17T13:43:36.375Z,98750.22
2022-11-17T13:46:06.185Z,98753.88
2022-11-17T13:48:43.472Z,98748.97
2022-11-17T13:51:22.702Z,98739.84
2022-11-17T13:54:11.372Z,98749.88
2022-11-17T13:56:42.495Z,98748.53
2022-11-17T13:59:18.186Z,98747.91
2022-11-17T14:01:45.051Z,98751.91
2022-11-17T14:04:21.527Z,98749.59
2022-11-17T14:06:52.092Z,98743.25
2022-11-17T14:09:18.769Z,98746.66
2022-11-17T14:11:45.456Z,98749.44
2022-11-17T14:14:14.051Z,98756.25
2022-11-17T14:16:41.682Z,98748.19
2022-11-17T14:19:17.242Z,98753.94
2022-11-17T14:22:08.404Z,98752.38
2022-11-17T14:24:35.315Z,98764.13
2022-11-17T14:27:01.928Z,98761.63
2022-11-17T14:29:29.458Z,98758.38
2022-11-17T14:31:56.910Z,98755.78
2022-11-17T14:34:23.893Z,98768.56
2022-11-17T14:36:54.459Z,98764.25
2022-11-17T14:39:21.241Z,98758.84
2022-11-17T14:41:49.923Z,98770.28
2022-11-17T14:44:17.219Z,98780.16
2022-11-17T14:46:43.918Z,98778.00
2022-11-17T14:49:10.543Z,98773.97
2022-11-17T14:51:37.013Z,98777.38
2022-11-17T14:54:03.916Z,98778.44
2022-11-17T14:56:30.501Z,98778.16
2022-11-17T14:59:00.461Z,98774.13
2022-11-17T15:01:31.082Z,98777.38
2022-11-17T15:04:04.134Z,98782.63
2022-11-17T15:06:37.653Z,98784.63
2022-11-17T15:09:05.859Z,98783.72
2022-11-17T15:11:38.185Z,98785.72
2022-11-17T15:14:06.268Z,98788.47
2022-11-17T15:16:33.558Z,98795.28
2022-11-17T15:19:00.117Z,98797.72
2022-11-17T15:21:26.615Z,98799.28
2022-11-17T15:23:53.068Z,98801.28
2022-11-17T15:26:23.290Z,98802.22
2022-11-17T15:28:49.776Z,98816.56
2022-11-17T15:31:18.739Z,98798.06
2022-11-17T15:33:46.445Z,98808.69
2022-11-17T15:36:18.620Z,98813.19
2022-11-17T15:38:45.300Z,98804.53
2022-11-17T15:41:12.976Z,98820.72
2022-11-17T15:43:40.934Z,98821.50
2022-11-17T15:46:12.918Z,98826.28
2022-11-17T15:48:42.931Z,98826.44
2022-11-17T15:51:14.845Z,98830.75
2022-11-17T15:53:43.973Z,98833.25
2022-11-17T15:56:17.324Z,98836.94
2022-11-17T15:58:45.026Z,98833.25
2022-11-17T16:01:16.727Z,98840.66
2022-11-17T16:03:45.311Z,98841.13
2022-11-17T16:06:12.667Z,98850.06
2022-11-17T16:08:39.471Z,98844.66
2022-11-17T16:11:06.733Z,98847.75
2022-11-17T16:13:33.610Z,98847.41
2022-11-17T16:16:00.145Z,98841.41
2022-11-17T16:18:27.212Z,98846.97
2022-11-17T16:20:53.871Z,98844.19
2022-11-17T16:23:20.452Z,98855.28
2022-11-17T16:25:48.276Z,98851.31
2022-11-17T16:28:16.833Z,98849.75
2022-11-17T16:30:43.460Z,98853.44
2022-11-17T16:33:14.702Z,98865.78
2022-11-17T16:35:41.429Z,98880.75
2022-11-17T16:38:16.287Z,98890.75
2022-11-17T16:40:43.615Z,98879.94
2022-11-17T16:43:12.217Z,98870.13
2022-11-17T16:45:43.862Z,98873.03
2022-11-17T16:48:12.155Z,98870.56
2022-11-17T16:50:40.338Z,98875.59
2022-11-17T16:53:06.819Z,98871.25
2022-11-17T16:55:37.681Z,98871.69
2022-11-17T16:58:06.014Z,98877.84
2022-11-17T17:00:34.742Z,98879.19
2022-11-17T17:03:02.179Z,98881.47
2022-11-17T17:05:31.721Z,98890.88
2022-11-17T17:07:58.201Z,98886.22
2022-11-17T17:10:24.766Z,98889.34
2022-11-17T17:12:51.299Z,98888.53
2022-11-17T17:15:17.875Z,98881.13
2022-11-17T17:17:44.317Z,98885.94
2022-11-17T17:20:13.723Z,98884.97
2022-11-17T17:22:40.357Z,98887.41
2022-11-17T17:25:07.798Z,98884.31
2022-11-17T17:27:34.259Z,98894.00
2022-11-17T17:30:00.734Z,98896.88
2022-11-17T17:32:27.192Z,98900.69
2022-11-17T17:34:53.721Z,98893.28
2022-11-17T17:37:20.195Z,98897.41
2022-11-17T17:39:46.697Z,98903.53
2022-11-17T17:42:13.555Z,98903.00
2022-11-17T17:44:39.976Z,98902.91
2022-11-17T17:47:06.623Z,98909.34
2022-11-17T17:49:33.081Z,98901.91
2022-11-17T17:51:59.521Z,98897.72
2022-11-17T17:54:26.088Z,98910.47
2022-11-17T17:56:52.883Z,98912.59
2022-11-17T17:59:19.906Z,98914.06
2022-11-17T18:01:47.733Z,98910.34
2022-11-17T18:04:16.200Z,98916.63
2022-11-17T18:06:47.010Z,98916.44
2022-11-17T18:09:15.470Z,98924.41
2022-11-17T18:11:46.038Z,98927.38
2022-11-17T18:14:13.259Z,98926.28
2022-11-17T18:16:40.381Z,98928.84
2022-11-17T18:19:08.461Z,98926.66
2022-11-17T18:21:35.366Z,98930.75
2022-11-17T18:24:03.193Z,98943.94
2022-11-17T18:26:32.447Z,98930.31
2022-11-17T18:29:00.180Z,98938.94
2022-11-17T18:31:29.882Z,98941.03
2022-11-17T18:34:02.281Z,98940.13
2022-11-17T18:36:29.454Z,98933.81
2022-11-17T18:38:58.351Z,98942.38
2022-11-17T18:41:26.099Z,98946.13
2022-11-17T18:43:52.658Z,98951.56
2022-11-17T18:46:21.628Z,98953.97
2022-11-17T18:48:51.511Z,98961.53
2022-11-17T18:51:21.146Z,98963.53
2022-11-17T18:53:48.891Z,98962.72
2022-11-17T18:56:19.846Z,98975.03
2022-11-17T18:58:47.087Z,98973.94
2022-11-17T19:01:18.323Z,98978.69
2022-11-17T19:03:48.591Z,98973.94
2022-11-17T19:06:16.670Z,98976.72
2022-11-17T19:08:44.256Z,98978.69
2022-11-17T19:11:12.204Z,98983.00
2022-11-17T19:13:40.604Z,98979.94
2022-11-17T19:16:12.340Z,98986.31
2022-11-17T19:18:39.445Z,98984.25
2022-11-17T19:21:14.220Z,98992.25
2022-11-17T19:23:43.480Z,98993.00
2022-11-17T19:26:14.819Z,98995.66
2022-11-17T19:28:42.075Z,98992.91
2022-11-17T19:31:11.274Z,98999.09
2022-11-17T19:33:40.039Z,99001.06
2022-11-17T19:36:09.689Z,99004.72
2022-11-17T19:38:38.568Z,99011.25
2022-11-17T19:41:10.419Z,99014.16
2022-11-17T19:43:43.455Z,99022.28
2022-11-17T19:46:14.030Z,99030.00
2022-11-17T19:48:41.149Z,99026.13
2022-11-17T19:51:16.687Z,99031.22
2022-11-17T19:53:43.418Z,99037.22
2022-11-17T19:56:09.937Z,99041.19
2022-11-17T19:58:36.403Z,99037.22
2022-11-17T20:01:12.057Z,99035.34
2022-11-17T20:03:39.650Z,99041.97
2022-11-17T20:06:07.087Z,99056.38
2022-11-17T20:08:33.560Z,99049.25
2022-11-17T20:11:20.769Z,99049.25
2022-11-17T20:13:47.699Z,99039.75
2022-11-17T20:16:19.862Z,99047.94
2022-11-17T20:18:49.912Z,99058.28
2022-11-17T20:21:16.413Z,99055.03
2022-11-17T20:23:43.629Z,99065.91
2022-11-17T20:26:15.342Z,99067.91
2022-11-17T20:28:42.200Z,99064.78
2022-11-17T20:31:16.408Z,99070.22
2022-11-17T20:33:43.836Z,99069.56
2022-11-17T20:36:16.725Z,99080.66
2022-11-17T20:38:43.471Z,99071.34
2022-11-17T20:41:10.366Z,99073.88
2022-11-17T20:43:37.343Z,99080.28
2022-11-17T20:46:04.347Z,99082.50
2022-11-17T20:48:33.893Z,99084.25
2022-11-17T20:51:00.327Z,99084.38
2022-11-17T20:53:28.398Z,99092.00
2022-11-17T20:55:56.486Z,99086.25
2022-11-17T20:58:24.053Z,99093.84
2022-11-17T21:00:50.651Z,99095.66
2022-11-17T21:03:17.639Z,99097.28
2022-11-17T21:05:44.181Z,99097.84
2022-11-17T21:08:10.675Z,99106.44
2022-11-17T21:10:37.141Z,99105.31
2022-11-17T21:13:03.669Z,99094.44
2022-11-17T21:15:30.127Z,99111.41
2022-11-17T21:18:15.079Z,99108.72
2022-11-17T21:20:41.536Z,99117.13
2022-11-17T21:23:07.940Z,99114.03
2022-11-17T21:25:36.241Z,99111.78
2022-11-17T21:28:03.085Z,99122.94
2022-11-17T21:30:29.604Z,99132.66
2022-11-17T21:32:56.085Z,99132.38
2022-11-17T21:35:22.573Z,99134.16
2022-11-17T21:37:48.988Z,99128.44
2022-11-17T21:40:16.003Z,99144.19
2022-11-17T21:42:42.487Z,99145.72
2022-11-17T21:45:09.530Z,99136.66
2022-11-17T21:47:36.017Z,99144.19
2022-11-17T21:50:02.573Z,99132.50
2022-11-17T21:52:29.054Z,99143.50
2022-11-17T21:54:55.551Z,99150.56
2022-11-17T21:57:22.003Z,99150.31
2022-11-17T21:59:48.496Z,99157.16
2022-11-17T22:02:14.956Z,99156.47
2022-11-17T22:04:41.384Z,99165.97
2022-11-17T22:07:07.894Z,99158.09
2022-11-17T22:09:35.794Z,99171.56
2022-11-17T22:12:02.747Z,99160.34
2022-11-17T22:14:29.226Z,99168.19
2022-11-17T22:16:56.437Z,99169.41
2022-11-17T22:19:26.454Z,99182.19
2022-11-17T22:21:53.820Z,99175.19
2022-11-17T22:24:21.402Z,99179.41
2022-11-17T22:26:48.158Z,99180.16
2022-11-17T22:29:20.401Z,99171.88
2022-11-17T22:31:48.555Z,99184.19
2022-11-17T22:34:15.768Z,99178.19
2022-11-17T22:36:42.484Z,99187.16
2022-11-17T22:39:09.395Z,99176.97
2022-11-17T22:41:36.108Z,99181.72
2022-11-17T22:44:02.599Z,99184.75
2022-11-17T22:46:29.440Z,99184.75
2022-11-17T22:48:56.369Z,99189.66
2022-11-17T22:51:43.569Z,99185.78
2022-11-17T22:54:10.217Z,99186.63
2022-11-17T22:56:36.800Z,99187.56
2022-11-17T22:59:03.499Z,99184.03
2022-11-17T23:01:29.992Z,99184.94
2022-11-17T23:03:56.649Z,99190.84
2022-11-17T23:06:24.151Z,99183.41
2022-11-17T23:08:50.663Z,99191.69
2022-11-17T23:14:07.543Z,99209.69
2022-11-17T23:16:33.997Z,99213.72
2022-11-17T23:19:00.470Z,99210.25
2022-11-17T23:21:27.040Z,99217.44
2022-11-17T23:23:53.632Z,99222.25
2022-11-17T23:26:20.594Z,99225.06
2022-11-17T23:28:47.118Z,99219.28
2022-11-17T23:31:15.684Z,99231.84
2022-11-17T23:33:44.823Z,99226.00
2022-11-17T23:36:20.216Z,99231.09
2022-11-17T23:38:47.805Z,99233.56
2022-11-17T23:41:16.067Z,99237.53
2022-11-17T23:43:42.929Z,99235.97
2022-11-17T23:46:17.441Z,99232.00
2022-11-17T23:48:44.896Z,99240.28
2022-11-17T23:51:14.061Z,99242.28
2022-11-17T23:53:40.906Z,99246.97
2022-11-17T23:56:08.853Z,99242.63
2022-11-17T23:58:35.973Z,99249.34
